Bouthillier Airport

METAR CYUL TAF CYUL
-8 °C
°C
-
°C
16m
Age
12:49:37
LT
11:49
UTC
0 ft

1,000

2,000

3,000

4,000

5,000

FEW 900
OVC 1,600
MVFR
<?= Yii::t('app', 'Wind direction') ?> <?= Yii::t('app', 'of'); ?>
280°
07:18
Sunrise
86%
Humidity
Wind shear
Closed/Snow
RWY visual range
RWY condition
Vert. visibility
Min. visibility
CAVOK
Trend
Correction
Special report
30.25 inHg
QNH
METAR CYUL 301134Z 28005KT 15SM -SN FEW009 OVC016 M08/M10 A3025 RMK SF1SC7 SLP247
Light snow
0 kt
0 kt
07:00
MVFR
6 kt
08:00
MVFR
6 kt
09:00
MVFR
6 kt
10:00
VFR
10 kt
11:00
VFR
10 kt
12:00
VFR
10 kt
13:00
VFR
10 kt
15 mi
Visibility
1,600 ft
Ceiling
5 kt
Wind
metar-taf.com/CRG3

Metar-Taf.com

Visual decoder

We and third parties follow your internet behavior on our website with cookies. If you continue, we assume you agree with our cookie policy.